Time;durP1;ratioP1;P1;durP2;ratioP2;P2;SDS_P1;SDS_P2;PMS_P1;PMS_P2;Temp;Humidity;BMP_temperature;BMP_pressure;BME280_temperature;BME280_humidity;BME280_pressure;Samples;Min_cycle;Max_cycle;Signal;HPM_P1;HPM_P2
2022/01/09 00:00:19;;;;;;;;;;;;;;;20.54;50.26;99431.84;5024599;28;4522;-67
2022/01/09 00:02:47;;;;;;;;;;;;;;;20.61;49.70;99432.72;5030028;28;5261;-68
2022/01/09 00:05:13;;;;;;;;;;;;;;;20.64;49.86;99419.88;5026624;28;4255;-67
2022/01/09 00:07:40;;;;;;;;;;;;;;;20.70;49.70;99417.84;5027279;28;5200;-68
2022/01/09 00:10:06;;;;;;;;;;;;;;;20.64;49.83;99411.25;5025427;28;4028;-68
2022/01/09 00:12:33;;;;;;;;;;;;;;;20.70;49.55;99399.84;5027743;28;4208;-67
2022/01/09 00:14:59;;;;;;;;;;;;;;;20.68;49.53;99408.44;5035355;28;4047;-67
2022/01/09 00:17:25;;;;;;;;;;;;;;;20.70;49.95;99394.09;5028392;28;4256;-68
2022/01/09 00:19:52;;;;;;;;;;;;;;;20.66;49.89;99396.88;5023633;28;4255;-67
2022/01/09 00:22:24;;;;;;;;;;;;;;;20.65;49.81;99399.03;5026572;28;5534;-67
2022/01/09 00:24:50;;;;;;;;;;;;;;;20.62;49.78;99388.19;5020139;28;4117;-67
2022/01/09 00:27:17;;;;;;;;;;;;;;;20.60;49.82;99386.00;5033978;28;4272;-67
2022/01/09 00:29:43;;;;;;;;;;;;;;;20.55;49.90;99383.66;5027242;28;4244;-67
2022/01/09 00:32:09;;;;;;;;;;;;;;;20.60;49.83;99380.25;5027124;28;4363;-67
2022/01/09 00:34:36;;;;;;;;;;;;;;;20.63;49.67;99373.09;5025698;28;4252;-67
2022/01/09 00:37:02;;;;;;;;;;;;;;;20.62;49.74;99376.69;5029549;28;4325;-67
2022/01/09 00:39:29;;;;;;;;;;;;;;;20.59;49.85;99364.41;5032974;28;4259;-68
2022/01/09 00:41:55;;;;;;;;;;;;;;;20.67;49.81;99367.44;5033882;28;5276;-68
2022/01/09 00:44:21;;;;;;;;;;;;;;;20.58;49.94;99362.94;5031527;28;4523;-67
2022/01/09 00:46:48;;;;;;;;;;;;;;;20.56;49.80;99365.03;5032842;28;4514;-68
2022/01/09 00:49:14;;;;;;;;;;;;;;;20.56;49.79;99353.50;5036503;28;4281;-67
2022/01/09 00:51:41;;;;;;;;;;;;;;;20.57;49.79;99357.88;5032366;28;5392;-68
2022/01/09 00:54:07;;;;;;;;;;;;;;;20.63;49.61;99349.38;5028050;28;4276;-68
2022/01/09 00:56:33;;;;;;;;;;;;;;;20.58;49.87;99342.81;5030956;28;4667;-68
2022/01/09 00:59:00;;;;;;;;;;;;;;;20.65;49.73;99347.28;5036874;28;4238;-67
2022/01/09 01:01:26;;;;;;;;;;;;;;;20.63;49.46;99343.63;5033437;28;4401;-66
2022/01/09 01:03:52;;;;;;;;;;;;;;;20.60;49.50;99342.84;5038905;28;4256;-67
2022/01/09 01:06:19;;;;;;;;;;;;;;;20.65;49.41;99340.78;5037313;28;4222;-66
2022/01/09 01:08:45;;;;;;;;;;;;;;;20.67;49.44;99332.22;5032090;28;4167;-67
2022/01/09 01:11:12;;;;;;;;;;;;;;;20.65;49.51;99335.78;5034689;28;4272;-67
2022/01/09 01:13:39;;;;;;;;;;;;;;;20.62;49.70;99325.66;5032291;28;5277;-66
2022/01/09 01:16:05;;;;;;;;;;;;;;;20.60;49.74;99327.75;5033358;28;5372;-67
2022/01/09 01:18:31;;;;;;;;;;;;;;;20.59;49.53;99329.91;5038292;28;4261;-67
2022/01/09 01:20:58;;;;;;;;;;;;;;;20.55;50.05;99326.16;5036997;28;4415;-66
2022/01/09 01:23:24;;;;;;;;;;;;;;;20.60;49.63;99322.00;5037052;28;4273;-69
2022/01/09 01:25:52;;;;;;;;;;;;;;;20.60;49.73;99322.00;5026359;28;4502;-66
2022/01/09 01:28:18;;;;;;;;;;;;;;;20.61;49.60;99317.69;5030171;28;4791;-67
2022/01/09 01:30:45;;;;;;;;;;;;;;;20.53;49.82;99311.75;5023681;28;5224;-67
2022/01/09 01:33:11;;;;;;;;;;;;;;;20.57;49.90;99306.84;5032974;28;4245;-66
2022/01/09 01:35:37;;;;;;;;;;;;;;;20.49;49.55;99301.63;5030668;28;5270;-67
2022/01/09 01:38:04;;;;;;;;;;;;;;;20.55;49.93;99303.16;5032877;28;4177;-67
2022/01/09 01:40:30;;;;;;;;;;;;;;;20.53;49.72;99294.50;5031170;28;4185;-67
2022/01/09 01:42:56;;;;;;;;;;;;;;;20.55;49.59;99291.66;5033889;28;5276;-67
2022/01/09 01:45:23;;;;;;;;;;;;;;;20.58;49.41;99273.06;5038019;28;4187;-67
2022/01/09 01:47:49;;;;;;;;;;;;;;;20.58;49.44;99279.53;5036009;28;4534;-67
2022/01/09 01:50:16;;;;;;;;;;;;;;;20.59;49.37;99274.53;5036758;28;4266;-67
2022/01/09 01:52:45;;;;;;;;;;;;;;;20.58;49.55;99270.19;5033674;28;4214;-67
2022/01/09 01:55:11;;;;;;;;;;;;;;;20.60;49.26;99270.97;5038680;28;4096;-67
2022/01/09 01:57:38;;;;;;;;;;;;;;;20.60;49.35;99267.38;5030106;28;4161;-67
2022/01/09 02:00:05;;;;;;;;;;;;;;;20.58;49.58;99250.06;5033600;28;4167;-67
2022/01/09 02:02:31;;;;;;;;;;;;;;;20.53;49.54;99254.25;5031552;28;5580;-67
2022/01/09 02:04:58;;;;;;;;;;;;;;;20.54;49.50;99247.81;5032703;28;4348;-67
2022/01/09 02:07:25;;;;;;;;;;;;;;;20.57;49.63;99245.72;5027806;28;4259;-68
2022/01/09 02:09:51;;;;;;;;;;;;;;;20.57;49.45;99239.97;5028382;28;4599;-67
2022/01/09 02:12:18;;;;;;;;;;;;;;;20.58;49.38;99244.31;5032714;28;4461;-67
2022/01/09 02:14:46;;;;;;;;;;;;;;;20.55;49.34;99239.91;5035836;28;4186;-68
2022/01/09 02:17:17;;;;;;;;;;;;;;;20.57;49.67;99237.84;5034933;28;4071;-67
2022/01/09 02:20:09;;;;;;;;;;;;;;;20.58;49.40;99242.16;5030879;28;5323;-67
2022/01/09 02:22:37;;;;;;;;;;;;;;;20.49;49.73;99231.91;5030938;28;6298;-66
2022/01/09 02:25:04;;;;;;;;;;;;;;;20.49;49.37;99235.50;5034837;28;4086;-67
2022/01/09 02:27:30;;;;;;;;;;;;;;;20.51;49.86;99224.03;5014714;28;5332;-67
2022/01/09 02:29:57;;;;;;;;;;;;;;;20.53;49.73;99219.75;5031873;28;4267;-67
2022/01/09 02:32:23;;;;;;;;;;;;;;;20.46;49.68;99219.63;5030571;28;5335;-67
2022/01/09 02:34:50;;;;;;;;;;;;;;;20.49;49.36;99220.41;5035897;28;4314;-67
2022/01/09 02:37:16;;;;;;;;;;;;;;;20.54;49.49;99215.44;5036353;28;4181;-67
2022/01/09 02:39:43;;;;;;;;;;;;;;;20.51;49.68;99206.06;5034907;28;4334;-66
2022/01/09 02:42:18;;;;;;;;;;;;;;;20.59;49.38;99199.75;5037771;28;4122;-67
2022/01/09 02:44:45;;;;;;;;;;;;;;;20.56;49.38;99201.88;5036360;28;4200;-67
2022/01/09 02:47:11;;;;;;;;;;;;;;;20.58;49.20;99201.19;5037128;28;5501;-67
2022/01/09 02:49:38;;;;;;;;;;;;;;;20.57;49.16;99197.59;5034992;28;4227;-67
2022/01/09 02:52:11;;;;;;;;;;;;;;;20.56;49.68;99198.25;5035917;28;5264;-67
2022/01/09 02:57:22;;;;;;;;;;;;;;;20.62;49.19;99181.13;5035397;28;5230;-67
2022/01/09 02:59:48;;;;;;;;;;;;;;;20.51;49.59;99183.78;5036614;28;4322;-67
2022/01/09 03:02:20;;;;;;;;;;;;;;;20.60;49.43;99178.22;5036060;28;4253;-67
2022/01/09 03:04:46;;;;;;;;;;;;;;;20.56;49.41;99172.38;5037380;28;4144;-67
2022/01/09 03:07:12;;;;;;;;;;;;;;;20.58;49.31;99163.81;5035742;28;4276;-67
2022/01/09 03:09:39;;;;;;;;;;;;;;;20.50;49.28;99165.09;5035213;28;4270;-67
2022/01/09 03:12:11;;;;;;;;;;;;;;;20.47;49.31;99166.44;5037484;28;5177;-67
2022/01/09 03:14:37;;;;;;;;;;;;;;;20.45;49.71;99169.28;5032991;28;4192;-68
2022/01/09 03:17:04;;;;;;;;;;;;;;;20.49;49.32;99163.63;5033763;28;4331;-67
2022/01/09 03:19:31;;;;;;;;;;;;;;;20.52;49.50;99167.25;5031207;28;4253;-68
2022/01/09 03:21:57;;;;;;;;;;;;;;;20.48;49.40;99167.19;5032963;28;5285;-67
2022/01/09 03:24:24;;;;;;;;;;;;;;;20.41;49.48;99157.72;5037456;28;4219;-67
2022/01/09 03:26:50;;;;;;;;;;;;;;;20.47;49.27;99163.56;5034998;28;4108;-67
2022/01/09 03:29:16;;;;;;;;;;;;;;;20.47;49.48;99154.22;5036021;28;4034;-67
2022/01/09 03:31:43;;;;;;;;;;;;;;;20.49;49.22;99163.63;5036149;28;4368;-67
2022/01/09 03:34:09;;;;;;;;;;;;;;;20.56;48.91;99166.63;5036111;28;4231;-67
2022/01/09 03:36:35;;;;;;;;;;;;;;;20.52;49.57;99155.75;5034177;28;4177;-67
2022/01/09 03:39:02;;;;;;;;;;;;;;;20.48;49.43;99144.91;5033864;28;5163;-67
2022/01/09 03:41:28;;;;;;;;;;;;;;;20.45;49.37;99146.28;5034395;28;4242;-67
2022/01/09 03:43:54;;;;;;;;;;;;;;;20.53;49.41;99147.88;5034137;28;4255;-67
2022/01/09 03:46:21;;;;;;;;;;;;;;;20.54;49.64;99146.44;5036676;28;4426;-66
2022/01/09 03:48:47;;;;;;;;;;;;;;;20.55;49.40;99145.75;5034264;28;5026;-67
2022/01/09 03:51:14;;;;;;;;;;;;;;;20.51;49.28;99149.28;5031350;28;6447;-67
2022/01/09 03:53:40;;;;;;;;;;;;;;;20.51;49.72;99146.41;5033797;28;4242;-67
2022/01/09 03:56:06;;;;;;;;;;;;;;;20.53;49.47;99133.50;5035329;28;4270;-68
2022/01/09 03:58:35;;;;;;;;;;;;;;;20.46;49.48;99135.53;5035665;28;4189;-67
2022/01/09 04:01:06;;;;;;;;;;;;;;;20.58;48.88;99132.19;5035509;28;4157;-66
2022/01/09 04:03:33;;;;;;;;;;;;;;;20.54;49.08;99129.19;5036591;28;5297;-67
2022/01/09 04:06:01;;;;;;;;;;;;;;;20.52;49.54;99121.25;5034646;28;4359;-66
2022/01/09 04:08:27;;;;;;;;;;;;;;;20.53;49.21;99122.00;5032944;28;5436;-67
2022/01/09 04:10:54;;;;;;;;;;;;;;;20.48;49.39;99121.91;5031722;28;4271;-67
2022/01/09 04:13:20;;;;;;;;;;;;;;;20.51;49.46;99120.53;5036197;28;4254;-67
2022/01/09 04:15:48;;;;;;;;;;;;;;;20.49;49.63;99123.38;5032334;28;4151;-66
2022/01/09 04:18:15;;;;;;;;;;;;;;;20.46;49.58;99119.00;5033518;28;4233;-66
2022/01/09 04:20:42;;;;;;;;;;;;;;;20.43;49.73;99119.66;5031599;28;4236;-67
2022/01/09 04:23:08;;;;;;;;;;;;;;;20.40;49.81;99116.00;5033304;28;4184;-67
2022/01/09 04:25:34;;;;;;;;;;;;;;;20.45;49.62;99108.19;5029729;28;5306;-66
2022/01/09 04:28:01;;;;;;;;;;;;;;;20.45;49.63;99105.31;5032195;28;5559;-66
2022/01/09 04:30:27;;;;;;;;;;;;;;;20.44;49.62;99098.13;5032881;28;4286;-67
2022/01/09 04:32:53;;;;;;;;;;;;;;;20.43;49.44;99108.91;5034855;28;4293;-67
2022/01/09 04:35:20;;;;;;;;;;;;;;;19.89;47.44;99094.94;5032068;28;4546;-67
2022/01/09 04:37:48;;;;;;;;;;;;;;;20.11;50.25;99096.78;5026965;28;4289;-67
2022/01/09 04:40:15;;;;;;;;;;;;;;;20.27;49.87;99100.69;5034810;28;4231;-68
2022/01/09 04:42:45;;;;;;;;;;;;;;;20.40;49.11;99093.00;5032404;28;5880;-67
2022/01/09 04:45:13;;;;;;;;;;;;;;;20.48;49.19;99084.53;5031292;28;5325;-66
2022/01/09 04:47:42;;;;;;;;;;;;;;;20.49;49.06;99094.59;5034955;28;4212;-66
2022/01/09 04:50:13;;;;;;;;;;;;;;;20.46;49.11;99087.38;5035230;28;4370;-66
2022/01/09 04:52:40;;;;;;;;;;;;;;;20.49;49.03;99094.59;5034280;28;4484;-66
2022/01/09 04:55:07;;;;;;;;;;;;;;;20.46;49.42;99089.53;5033370;28;4272;-67
2022/01/09 04:57:33;;;;;;;;;;;;;;;20.51;49.15;99082.44;5033551;28;4217;-66
2022/01/09 04:59:59;;;;;;;;;;;;;;;20.44;49.25;99078.72;5032856;28;4217;-66
2022/01/09 05:02:26;;;;;;;;;;;;;;;20.50;49.43;99087.47;5034801;28;4251;-66
2022/01/09 05:04:52;;;;;;;;;;;;;;;20.48;49.34;99086.69;5033264;28;4245;-67
2022/01/09 05:07:19;;;;;;;;;;;;;;;20.47;49.50;99091.69;5033090;28;4187;-66
2022/01/09 05:09:45;;;;;;;;;;;;;;;20.41;49.58;99100.22;5032611;28;5156;-66
2022/01/09 05:12:11;;;;;;;;;;;;;;;20.44;49.45;99090.22;5035542;28;4133;-66
2022/01/09 05:14:38;;;;;;;;;;;;;;;20.43;49.57;99085.91;5033000;28;4208;-66
2022/01/09 05:17:05;;;;;;;;;;;;;;;20.37;49.79;99094.41;5033970;28;4133;-66
2022/01/09 05:19:33;;;;;;;;;;;;;;;20.40;49.64;99087.25;5033017;28;4267;-66
2022/01/09 05:22:00;;;;;;;;;;;;;;;20.40;49.59;99098.75;5033224;28;4416;-66
2022/01/09 05:24:26;;;;;;;;;;;;;;;20.43;49.77;99091.66;5037136;28;4303;-67
2022/01/09 05:26:54;;;;;;;;;;;;;;;20.45;49.82;99094.53;5036644;28;4169;-66
2022/01/09 05:29:21;;;;;;;;;;;;;;;20.50;49.60;99095.34;5035762;28;4235;-65
2022/01/09 05:31:50;;;;;;;;;;;;;;;20.49;49.62;99088.88;5036702;28;4175;-65
2022/01/09 05:34:16;;;;;;;;;;;;;;;20.50;49.68;99093.22;5040087;28;4525;-66
2022/01/09 05:36:43;;;;;;;;;;;;;;;20.46;49.79;99098.16;5035351;28;5732;-65
2022/01/09 05:39:09;;;;;;;;;;;;;;;20.49;49.80;99100.38;5038281;28;6465;-65
2022/01/09 05:41:35;;;;;;;;;;;;;;;20.43;49.82;99094.53;5039010;28;4193;-66
2022/01/09 05:44:02;;;;;;;;;;;;;;;20.53;49.74;99093.25;5035382;28;4248;-67
2022/01/09 05:46:28;;;;;;;;;;;;;;;20.51;49.75;99091.06;5036945;28;4188;-66
2022/01/09 05:48:54;;;;;;;;;;;;;;;20.50;49.53;99089.59;5036266;28;4193;-66
2022/01/09 05:51:21;;;;;;;;;;;;;;;20.45;49.77;99083.03;5034693;28;4221;-67
2022/01/09 05:53:47;;;;;;;;;;;;;;;20.46;49.88;99096.00;5038647;28;4219;-66
2022/01/09 05:56:14;;;;;;;;;;;;;;;20.40;50.00;99084.38;5035830;28;4061;-65
2022/01/09 05:58:40;;;;;;;;;;;;;;;20.39;50.33;99079.34;5037274;28;4226;-65
2022/01/09 06:01:07;;;;;;;;;;;;;;;20.43;49.80;99079.41;5035362;28;4681;-66
2022/01/09 06:03:33;;;;;;;;;;;;;;;20.40;49.77;99087.25;5035584;28;4525;-66
2022/01/09 06:06:00;;;;;;;;;;;;;;;20.42;49.67;99084.44;5037358;28;4253;-66
2022/01/09 06:08:26;;;;;;;;;;;;;;;20.43;50.09;99083.03;5033349;28;4230;-65
2022/01/09 06:10:53;;;;;;;;;;;;;;;20.39;49.91;99091.56;5035374;28;4186;-66
2022/01/09 06:13:19;;;;;;;;;;;;;;;20.38;49.87;99095.84;5037551;28;4523;-65
2022/01/09 06:15:45;;;;;;;;;;;;;;;20.39;49.76;99090.84;5035662;28;4238;-65
2022/01/09 06:18:12;;;;;;;;;;;;;;;20.44;49.91;99098.84;5034938;28;4202;-66
2022/01/09 06:20:39;;;;;;;;;;;;;;;20.50;49.80;99096.09;5034921;28;4371;-66
2022/01/09 06:23:06;;;;;;;;;;;;;;;20.42;49.90;99090.19;5034556;28;4233;-66
2022/01/09 06:25:32;;;;;;;;;;;;;;;20.47;49.86;99097.44;5037881;28;5253;-65
2022/01/09 06:27:58;;;;;;;;;;;;;;;20.50;49.85;99084.59;5037744;28;6443;-66
2022/01/09 06:30:25;;;;;;;;;;;;;;;20.48;49.85;99075.91;5031360;28;4171;-65
2022/01/09 06:32:51;;;;;;;;;;;;;;;20.53;49.62;99087.50;5035804;28;4253;-65
2022/01/09 06:35:17;;;;;;;;;;;;;;;20.41;50.02;99082.97;5035816;28;4101;-66
2022/01/09 06:37:44;;;;;;;;;;;;;;;20.45;49.48;99088.78;5033801;28;4281;-66
2022/01/09 06:40:10;;;;;;;;;;;;;;;20.41;49.79;99100.22;5036946;28;4193;-66
2022/01/09 06:42:38;;;;;;;;;;;;;;;20.44;50.03;99084.47;5035464;28;4436;-66
2022/01/09 06:45:04;;;;;;;;;;;;;;;20.44;49.45;99084.47;5032666;28;4242;-66
2022/01/09 06:47:31;;;;;;;;;;;;;;;20.54;49.73;99088.94;5036046;28;4181;-65
2022/01/09 06:49:59;;;;;;;;;;;;;;;20.43;49.87;99091.66;5033419;28;5270;-65
2022/01/09 06:52:25;;;;;;;;;;;;;;;20.48;49.69;99081.66;5035341;28;5325;-67
2022/01/09 06:54:52;;;;;;;;;;;;;;;20.44;49.92;99075.13;5035939;28;4284;-65
2022/01/09 06:57:18;;;;;;;;;;;;;;;20.48;49.74;99075.19;5035197;28;4175;-66
2022/01/09 06:59:45;;;;;;;;;;;;;;;20.44;49.69;99075.13;5035013;28;4189;-66
2022/01/09 07:02:11;;;;;;;;;;;;;;;20.42;49.63;99072.94;5034350;28;4221;-66
2022/01/09 07:04:37;;;;;;;;;;;;;;;20.45;49.62;99080.16;5038582;28;5391;-65
2022/01/09 07:07:05;;;;;;;;;;;;;;;20.48;49.38;99075.19;5034874;28;4189;-66
2022/01/09 07:09:31;;;;;;;;;;;;;;;20.52;49.43;99072.38;5035362;28;5244;-66
2022/01/09 07:11:57;;;;;;;;;;;;;;;20.50;49.38;99073.09;5034995;28;4326;-65
2022/01/09 07:14:24;;;;;;;;;;;;;;;20.44;49.55;99070.09;5032514;28;4175;-66
2022/01/09 07:16:50;;;;;;;;;;;;;;;20.43;49.91;99071.53;5034531;28;4136;-66
2022/01/09 07:19:17;;;;;;;;;;;;;;;20.49;49.47;99077.34;5034327;28;5737;-65
2022/01/09 07:21:43;;;;;;;;;;;;;;;20.51;49.70;99079.56;5036306;28;4277;-65
2022/01/09 07:24:09;;;;;;;;;;;;;;;20.49;49.56;99071.59;5031339;28;5342;-66
2022/01/09 07:26:35;;;;;;;;;;;;;;;20.52;49.22;99075.25;5032206;28;4241;-66
2022/01/09 07:29:02;;;;;;;;;;;;;;;20.53;49.58;99076.00;5036378;28;4241;-66
2022/01/09 07:31:28;;;;;;;;;;;;;;;20.46;49.52;99078.75;5034909;28;4392;-66
2022/01/09 07:33:55;;;;;;;;;;;;;;;20.47;49.62;99073.72;5036103;28;4165;-65
2022/01/09 07:36:21;;;;;;;;;;;;;;;20.50;49.03;99092.47;5036420;28;4463;-66
2022/01/09 07:38:47;;;;;;;;;;;;;;;20.42;49.81;99084.44;5034387;28;4217;-66
2022/01/09 07:41:14;;;;;;;;;;;;;;;20.49;49.56;99085.25;5035924;28;4169;-66
2022/01/09 07:43:41;;;;;;;;;;;;;;;20.46;49.45;99078.75;5031821;28;5319;-66
2022/01/09 07:46:08;;;;;;;;;;;;;;;20.47;49.31;99090.97;5031219;28;4309;-66
2022/01/09 07:48:34;;;;;;;;;;;;;;;20.36;49.71;99095.09;5032537;28;4256;-67
2022/01/09 07:51:00;;;;;;;;;;;;;;;20.34;49.86;99090.03;5031083;28;5355;-66
2022/01/09 07:53:26;;;;;;;;;;;;;;;20.41;49.46;99094.47;5033220;28;4370;-67
2022/01/09 07:55:53;;;;;;;;;;;;;;;20.46;49.44;99101.75;5033855;28;5375;-66
2022/01/09 07:58:19;;;;;;;;;;;;;;;20.42;49.67;99090.19;5032766;28;4176;-66
2022/01/09 08:00:45;;;;;;;;;;;;;;;20.42;49.32;99098.81;5031397;28;4177;-66
2022/01/09 08:03:12;;;;;;;;;;;;;;;20.44;49.52;99086.63;5033488;28;4051;-66
2022/01/09 08:05:39;;;;;;;;;;;;;;;20.46;49.35;99092.41;5032240;28;4194;-66
2022/01/09 08:08:05;;;;;;;;;;;;;;;20.45;49.37;99097.41;5032936;28;4151;-66
2022/01/09 08:10:32;;;;;;;;;;;;;;;20.50;49.52;99090.34;5033763;28;5206;-66
2022/01/09 08:13:00;;;;;;;;;;;;;;;20.45;49.36;99085.91;5032328;28;5760;-66
2022/01/09 08:15:29;;;;;;;;;;;;;;;20.51;49.19;99080.28;5033194;28;5301;-66
2022/01/09 08:17:56;;;;;;;;;;;;;;;20.51;49.09;99086.03;5030325;28;4204;-66
2022/01/09 08:20:22;;;;;;;;;;;;;;;20.47;49.56;99088.81;5030401;28;4256;-66
2022/01/09 08:22:48;;;;;;;;;;;;;;;20.46;49.31;99087.38;5030749;28;4402;-66
2022/01/09 08:25:16;;;;;;;;;;;;;;;20.46;49.10;99086.66;5030329;28;4106;-66
2022/01/09 08:27:43;;;;;;;;;;;;;;;20.42;49.43;99089.44;5028181;28;4196;-66
2022/01/09 08:30:10;;;;;;;;;;;;;;;20.38;49.47;99089.38;5031672;28;4256;-66
2022/01/09 08:32:37;;;;;;;;;;;;;;;20.44;49.41;99093.09;5011026;28;4016;-65
2022/01/09 08:35:04;;;;;;;;;;;;;;;20.44;49.21;99093.09;5030566;28;5321;-66
2022/01/09 08:37:30;;;;;;;;;;;;;;;20.45;49.28;99091.66;5030694;28;4492;-66
2022/01/09 08:39:56;;;;;;;;;;;;;;;20.39;49.55;99085.81;5034119;28;4304;-66
2022/01/09 08:42:23;;;;;;;;;;;;;;;20.40;49.41;99093.00;5031049;28;5237;-66
2022/01/09 08:44:49;;;;;;;;;;;;;;;20.37;49.36;99085.78;5029793;28;4165;-66
2022/01/09 08:47:15;;;;;;;;;;;;;;;20.42;49.22;99095.94;5031361;28;4926;-66
2022/01/09 08:49:42;;;;;;;;;;;;;;;20.42;49.31;99095.19;5029941;28;5414;-66
2022/01/09 08:52:09;;;;;;;;;;;;;;;20.46;49.08;99101.75;5033359;28;4176;-66
2022/01/09 08:54:35;;;;;;;;;;;;;;;20.56;48.92;99098.34;5030047;28;4263;-65
2022/01/09 08:57:01;;;;;;;;;;;;;;;20.30;50.19;99095.72;5036481;28;5794;-65
2022/01/09 08:59:28;;;;;;;;;;;;;;;20.49;49.64;99097.47;5034436;28;4170;-66
2022/01/09 09:01:54;;;;;;;;;;;;;;;20.59;49.21;99102.75;5038573;28;4228;-66
2022/01/09 09:04:20;;;;;;;;;;;;;;;20.60;49.47;99103.47;5037606;28;6325;-66
2022/01/09 09:06:47;;;;;;;;;;;;;;;20.64;49.63;99109.28;5036524;28;4249;-66
2022/01/09 09:09:13;;;;;;;;;;;;;;;20.63;49.23;99113.56;5035713;28;4431;-66
2022/01/09 09:11:39;;;;;;;;;;;;;;;20.60;49.41;99109.22;5038671;28;4261;-67
2022/01/09 09:14:06;;;;;;;;;;;;;;;20.64;49.13;99115.03;5037062;28;4255;-67
2022/01/09 09:16:32;;;;;;;;;;;;;;;20.62;49.65;99112.84;5036596;28;4583;-66
2022/01/09 09:18:58;;;;;;;;;;;;;;;20.57;49.93;99119.19;5038000;28;4243;-67
2022/01/09 09:21:25;;;;;;;;;;;;;;;20.70;49.77;99112.25;5036781;28;4180;-65
2022/01/09 09:23:51;;;;;;;;;;;;;;;20.58;49.38;99115.66;5036435;28;5560;-66
2022/01/09 09:26:17;;;;;;;;;;;;;;;20.65;49.04;99122.22;5037319;28;4296;-66
2022/01/09 09:28:44;;;;;;;;;;;;;;;20.64;49.14;99123.66;5035942;28;4117;-66
2022/01/09 09:31:10;;;;;;;;;;;;;;;20.62;49.18;99130.09;5036282;28;4140;-65
2022/01/09 09:33:37;;;;;;;;;;;;;;;20.64;49.46;99123.66;5037757;28;4215;-65
2022/01/09 09:36:03;;;;;;;;;;;;;;;20.64;49.20;99132.28;5036067;28;5267;-65
2022/01/09 09:38:29;;;;;;;;;;;;;;;20.62;49.13;99146.63;5037742;28;4251;-65
2022/01/09 09:40:56;;;;;;;;;;;;;;;20.64;49.15;99150.28;5037589;28;4258;-65
2022/01/09 09:43:22;;;;;;;;;;;;;;;20.64;49.21;99143.78;5034741;28;5780;-64
2022/01/09 09:45:49;;;;;;;;;;;;;;;20.62;49.25;99140.88;5037367;28;5487;-65
2022/01/09 09:48:15;;;;;;;;;;;;;;;20.71;49.42;99140.31;5031850;28;4073;-65
2022/01/09 09:50:41;;;;;;;;;;;;;;;20.63;49.70;99137.28;5031131;28;4172;-65
2022/01/09 09:53:08;;;;;;;;;;;;;;;20.73;49.36;99141.75;5034470;28;5101;-64
2022/01/09 09:55:34;;;;;;;;;;;;;;;20.72;49.35;99138.16;5031136;28;5509;-64
2022/01/09 09:58:01;;;;;;;;;;;;;;;20.66;49.66;99140.94;5031798;28;3992;-65
2022/01/09 10:00:27;;;;;;;;;;;;;;;20.75;49.33;99122.41;5026189;28;4236;-65
2022/01/09 10:02:54;;;;;;;;;;;;;;;20.76;49.31;99134.66;5033446;28;5305;-65
2022/01/09 10:05:21;;;;;;;;;;;;;;;20.65;49.57;99134.47;5034729;28;5254;-64
2022/01/09 10:07:49;;;;;;;;;;;;;;;20.64;49.78;99132.28;5038673;28;5492;-66
2022/01/09 10:10:18;;;;;;;;;;;;;;;20.74;49.45;99143.97;5037764;28;5345;-66
2022/01/09 10:12:45;;;;;;;;;;;;;;;20.68;49.48;99144.59;5034502;28;5267;-66
2022/01/09 10:15:14;;;;;;;;;;;;;;;20.69;49.60;99142.44;5038843;28;4204;-66
2022/01/09 10:17:42;;;;;;;;;;;;;;;20.65;49.60;99131.56;5036536;28;4073;-66
2022/01/09 10:20:12;;;;;;;;;;;;;;;20.62;49.79;99135.84;5038921;28;4058;-64
2022/01/09 10:22:46;;;;;;;;;;;;;;;20.61;49.54;99140.13;5037611;28;4234;-65
2022/01/09 10:25:26;;;;;;;;;;;;;;;20.57;49.66;99140.06;5033913;28;4286;-66
2022/01/09 10:27:57;;;;;;;;;;;;;;;20.65;49.35;99139.47;5035635;28;4214;-65
2022/01/09 10:30:26;;;;;;;;;;;;;;;20.61;49.24;99139.41;5037785;28;4191;-66
2022/01/09 10:32:53;;;;;;;;;;;;;;;20.60;49.45;99143.72;5036589;28;4555;-65
2022/01/09 10:35:21;;;;;;;;;;;;;;;20.65;49.30;99145.25;5037491;28;4154;-66
2022/01/09 10:37:49;;;;;;;;;;;;;;;20.63;49.50;99139.44;5036342;28;4197;-66
2022/01/09 10:40:19;;;;;;;;;;;;;;;20.60;49.38;99143.72;5036750;28;5327;-65
2022/01/09 10:42:46;;;;;;;;;;;;;;;20.74;48.96;99146.84;5036540;28;4166;-65
2022/01/09 10:45:16;;;;;;;;;;;;;;;20.64;49.22;99144.50;5023266;28;4063;-65
2022/01/09 10:47:42;;;;;;;;;;;;;;;20.68;49.04;99143.84;5033021;28;4191;-64
2022/01/09 10:50:10;;;;;;;;;;;;;;;20.64;49.59;99147.38;5020688;28;4244;-66
2022/01/09 10:52:41;;;;;;;;;;;;;;;20.66;49.58;99146.69;5035075;28;4221;-66
2022/01/09 10:55:08;;;;;;;;;;;;;;;20.69;49.33;99156.81;5037268;28;4577;-64
2022/01/09 10:57:37;;;;;;;;;;;;;;;20.64;49.25;99147.38;5034992;28;4140;-66
2022/01/09 11:00:14;;;;;;;;;;;;;;;20.67;49.43;99159.66;5036122;28;5311;-66
2022/01/09 11:02:40;;;;;;;;;;;;;;;20.73;49.12;99156.16;5036330;28;4235;-65
2022/01/09 11:05:06;;;;;;;;;;;;;;;20.63;49.37;99162.44;5036516;28;5269;-65
2022/01/09 11:07:33;;;;;;;;;;;;;;;20.64;49.42;99166.81;5036275;28;4210;-65
2022/01/09 11:10:00;;;;;;;;;;;;;;;20.64;49.36;99158.91;5039136;28;5291;-65
2022/01/09 11:12:32;;;;;;;;;;;;;;;20.55;49.38;99157.25;5021112;28;4174;-65
2022/01/09 11:14:59;;;;;;;;;;;;;;;20.61;49.51;99156.66;5038399;28;4059;-64
2022/01/09 11:17:26;;;;;;;;;;;;;;;20.57;49.38;99156.59;5026726;28;5305;-64
2022/01/09 11:19:52;;;;;;;;;;;;;;;20.64;49.45;99164.66;5003063;28;4290;-65
2022/01/09 11:22:19;;;;;;;;;;;;;;;20.66;49.40;99161.06;5034939;28;4304;-65
2022/01/09 11:24:55;;;;;;;;;;;;;;;20.62;49.21;99164.59;5015080;28;5503;-65
2022/01/09 11:27:40;;;;;;;;;;;;;;;20.67;49.16;99171.16;5019809;28;4021;-65
2022/01/09 11:30:10;;;;;;;;;;;;;;;20.76;49.17;99178.50;5015568;28;4183;-66
2022/01/09 11:32:55;;;;;;;;;;;;;;;20.73;49.09;99171.28;5009722;28;4085;-66
2022/01/09 11:35:32;;;;;;;;;;;;;;;20.79;48.73;99174.25;5029659;28;4083;-65
2022/01/09 11:38:01;;;;;;;;;;;;;;;20.80;48.93;99175.72;5018207;28;4165;-65
2022/01/09 11:40:28;;;;;;;;;;;;;;;20.73;49.34;99185.66;5032715;28;4249;-65
2022/01/09 11:43:04;;;;;;;;;;;;;;;20.79;49.18;99182.16;5033614;28;4151;-64
2022/01/09 11:45:41;;;;;;;;;;;;;;;20.68;49.35;99178.34;5026362;28;5425;-64
2022/01/09 11:48:07;;;;;;;;;;;;;;;20.68;49.38;99179.09;5032591;28;4324;-64
2022/01/09 11:50:34;;;;;;;;;;;;;;;20.70;48.95;99176.25;5035486;28;4380;-65
2022/01/09 11:53:00;;;;;;;;;;;;;;;20.79;49.13;99187.91;5029857;28;6420;-65
2022/01/09 11:55:37;;;;;;;;;;;;;;;20.70;49.58;99179.13;5022225;28;4116;-67
2022/01/09 11:58:06;;;;;;;;;;;;;;;20.73;49.85;99190.66;5031431;28;4173;-67
2022/01/09 12:00:34;;;;;;;;;;;;;;;20.72;50.21;99187.06;5033197;28;4132;-67
2022/01/09 12:03:00;;;;;;;;;;;;;;;20.78;49.70;99183.59;5033673;28;4268;-68
2022/01/09 12:05:27;;;;;;;;;;;;;;;20.76;49.96;99187.16;5031928;28;5344;-68
2022/01/09 12:07:54;;;;;;;;;;;;;;;20.76;50.00;99192.19;5033127;28;3987;-67
2022/01/09 12:10:30;;;;;;;;;;;;;;;20.82;50.06;99193.00;5032488;28;4524;-67
2022/01/09 12:12:56;;;;;;;;;;;;;;;20.84;49.77;99193.03;5031016;28;4275;-67
2022/01/09 12:15:41;;;;;;;;;;;;;;;20.81;50.22;99191.53;5035699;28;4224;-67
2022/01/09 12:18:28;;;;;;;;;;;;;;;20.86;49.85;99192.34;5034806;28;4178;-67
2022/01/09 12:20:54;;;;;;;;;;;;;;;20.84;50.60;99201.66;5029091;28;4104;-70
2022/01/09 12:23:21;;;;;;;;;;;;;;;20.80;50.41;99203.72;5031249;28;5283;-67
2022/01/09 12:25:50;;;;;;;;;;;;;;;20.78;50.50;99198.69;5027301;28;5360;-68
2022/01/09 12:28:19;;;;;;;;;;;;;;;20.64;50.34;99202.03;5032961;28;4107;-69
2022/01/09 12:31:00;;;;;;;;;;;;;;;20.60;50.80;99209.84;5033467;28;4160;-67
2022/01/09 12:33:32;;;;;;;;;;;;;;;19.10;41.98;99212.25;5037574;28;5514;-66
2022/01/09 12:35:59;;;;;;;;;;;;;;;19.76;46.73;99219.56;5028867;28;4115;-66
2022/01/09 12:38:26;;;;;;;;;;;;;;;20.21;48.67;99220.56;5035536;28;4238;-66
2022/01/09 12:40:56;;;;;;;;;;;;;;;20.45;48.26;99221.03;5035086;28;5586;-66
2022/01/09 12:43:23;;;;;;;;;;;;;;;20.56;48.34;99233.50;5037917;28;4164;-66
2022/01/09 12:45:50;;;;;;;;;;;;;;;20.70;48.27;99233.03;5034308;28;4220;-66
2022/01/09 12:48:18;;;;;;;;;;;;;;;20.64;48.90;99230.06;5038664;28;4181;-66
2022/01/09 12:50:44;;;;;;;;;;;;;;;20.65;49.06;99237.25;5038124;28;5373;-66
2022/01/09 12:53:15;;;;;;;;;;;;;;;20.70;49.31;99230.88;5038407;28;4240;-66
2022/01/09 12:55:58;;;;;;;;;;;;;;;20.72;49.75;99235.97;5037182;28;4048;-66
2022/01/09 12:58:28;;;;;;;;;;;;;;;20.69;49.97;99237.34;5036334;28;4800;-67
2022/01/09 13:00:55;;;;;;;;;;;;;;;20.72;49.76;99235.97;5038859;28;4287;-66